»·PEaware :: N416JK KMRY-KPVF

N416JK :: KMRY-KPVF

FLIGHT INFORMATION

Flight Status: Arrived
Operator: Privately registered:
United States
More flights under this callsign
Pilot: John K. (4202)
Aircraft: Unknown
(PIPA)
More flights by this aircraft type
Origin: KMRY Monterey Peninsula
United States
Destination: KPVF Placerville
United States
More flights between these airports :: More routes between these airports
Route: MRY5 SNS V111 MOD V113 LIN V338 MUREQ
File this flight plan on PilotEdge
Remarks:
Altitude:
(Current/Filed)
7,000ft
Speed:
(Current/Filed)
170kts
Departed: 10-Mar-19 09:49 AM
Arrived: 10-Mar-19 10:43 AM
Distance/Time
Traveled:
138nm/0:54
Distance/Time
To Go:
Arrived

Flight Plot

Page will automatically refresh every two minutes.

Flight plan parsing failed; only flown route is shown


Map Options




Map Legend


Flown Route
Filed Route
Departure Airport
Arrival Airport
Navaid (VOR, NDB)
Fix

Horizontal Profiles

Position Reports

Time Latitude Longitude Heading Altitude Ground
Speed
10-Mar-19 09:36 36.588814 -121.856964 0 258ft 0kts
10-Mar-19 09:37 36.588814 -121.856964 0 258ft 0kts
10-Mar-19 09:39 36.588814 -121.856964 0 258ft 0kts
10-Mar-19 09:40 36.588814 -121.856964 0 258ft 0kts
10-Mar-19 09:40 36.589492 -121.856239 83 258ft 0kts
10-Mar-19 09:41 36.589492 -121.856239 83 258ft 0kts
10-Mar-19 09:42 36.589492 -121.856239 83 258ft 0kts
10-Mar-19 09:43 36.589078 -121.852953 112 258ft 11kts
10-Mar-19 09:44 36.587219 -121.847353 113 258ft 30kts
10-Mar-19 09:45 36.584918 -121.841109 113 258ft 24kts
10-Mar-19 09:46 36.582856 -121.835062 93 258ft 0kts
10-Mar-19 09:47 36.582854 -121.834870 90 258ft 13kts
10-Mar-19 09:48 36.591878 -121.856509 296 609ft 143kts
10-Mar-19 09:49 36.626827 -121.887899 342 1423ft 175kts
10-Mar-19 09:50 36.672955 -121.906942 342 2310ft 177kts
10-Mar-19 09:51 36.705412 -121.886923 103 3171ft 162kts
10-Mar-19 09:52 36.697259 -121.832660 103 4054ft 161kts
10-Mar-19 09:53 36.690936 -121.787841 104 5101ft 155kts
10-Mar-19 09:54 36.684639 -121.743949 103 6187ft 151kts
10-Mar-19 09:55 36.677081 -121.692036 103 7009ft 174kts
10-Mar-19 09:56 36.667524 -121.626852 103 7010ft 208kts
10-Mar-19 09:57 36.705265 -121.577405 27 7008ft 222kts
10-Mar-19 09:58 36.759580 -121.540664 27 7008ft 223kts
10-Mar-19 09:59 36.813284 -121.504697 27 7017ft 221kts
10-Mar-19 10:00 36.865849 -121.469678 28 7018ft 213kts
10-Mar-19 10:01 36.916815 -121.435713 28 7017ft 208kts
10-Mar-19 10:02 36.967505 -121.401851 28 7017ft 205kts
10-Mar-19 10:03 37.016748 -121.368963 28 7017ft 202kts
10-Mar-19 10:04 37.065834 -121.336163 28 7018ft 203kts
10-Mar-19 10:05 37.115014 -121.303232 28 7018ft 204kts
10-Mar-19 10:06 37.164853 -121.269752 27 7036ft 203kts
10-Mar-19 10:07 37.213376 -121.237165 27 7045ft 199kts
10-Mar-19 10:08 37.261298 -121.205043 28 7027ft 200kts
10-Mar-19 10:09 37.309600 -121.172528 29 7005ft 200kts
10-Mar-19 10:10 37.358792 -121.139310 28 7000ft 201kts
10-Mar-19 10:11 37.407374 -121.106505 28 7000ft 202kts
10-Mar-19 10:12 37.456156 -121.073533 28 7000ft 202kts
10-Mar-19 10:13 37.504058 -121.041092 28 7000ft 195kts
10-Mar-19 10:14 37.551109 -121.009146 28 7000ft 195kts
10-Mar-19 10:15 37.595915 -120.978709 28 6999ft 195kts
10-Mar-19 10:16 37.646357 -120.959574 355 7000ft 201kts
10-Mar-19 10:17 37.701674 -120.965062 355 6999ft 202kts
10-Mar-19 10:18 37.756833 -120.970625 355 6999ft 201kts
10-Mar-19 10:19 37.812234 -120.976279 355 6999ft 198kts
10-Mar-19 10:20 37.866073 -120.981780 355 6994ft 196kts
10-Mar-19 10:21 37.919615 -120.987259 355 6990ft 194kts
10-Mar-19 10:22 37.972563 -120.992714 355 6990ft 193kts
10-Mar-19 10:23 38.025990 -120.998227 355 6990ft 193kts
10-Mar-19 10:24 38.078785 -121.001009 16 6989ft 192kts
10-Mar-19 10:25 38.128664 -120.981928 17 6983ft 192kts
10-Mar-19 10:26 38.178634 -120.962664 17 6981ft 192kts
10-Mar-19 10:27 38.229633 -120.942897 17 6981ft 192kts
10-Mar-19 10:28 38.279278 -120.923605 17 6981ft 192kts
10-Mar-19 10:29 38.328885 -120.904268 18 6981ft 191kts
10-Mar-19 10:30 38.377800 -120.885543 18 6982ft 191kts
10-Mar-19 10:31 38.428685 -120.865971 18 6982ft 191kts
10-Mar-19 10:32 38.479100 -120.846390 18 6466ft 199kts
10-Mar-19 10:33 38.527465 -120.828136 18 5681ft 178kts
10-Mar-19 10:34 38.570955 -120.811722 17 4905ft 162kts
10-Mar-19 10:35 38.612923 -120.795840 17 4094ft 150kts
10-Mar-19 10:36 38.644414 -120.783950 16 3579ft 94kts
10-Mar-19 10:37 38.668650 -120.774800 16 3580ft 92kts
10-Mar-19 10:38 38.694376 -120.765007 23 3582ft 102kts
10-Mar-19 10:39 38.710072 -120.736245 61 3672ft 99kts
10-Mar-19 10:40 38.728982 -120.716428 323 3581ft 108kts
10-Mar-19 10:41 38.728705 -120.742332 238 2708ft 63kts
10-Mar-19 10:42 38.724001 -120.754752 266 2587ft 17kts
10-Mar-19 10:43 38.723849 -120.755763 152 2587ft 0kts

Navigation Log

Ident Type
Flight plan parsing failed, navigation log unavailable